Time;durP1;ratioP1;P1;durP2;ratioP2;P2;SDS_P1;SDS_P2;PMS_P1;PMS_P2;Temp;Humidity;BMP_temperature;BMP_pressure;BME280_temperature;BME280_humidity;BME280_pressure;Samples;Min_cycle;Max_cycle;Signal;HPM_P1;HPM_P2
2022/02/19 00:00:30;;;;;;;7.05;2.30;;;7.90;99.90;;;;;;5108402;28;20363;-81
2022/02/19 00:02:56;;;;;;;8.00;2.40;;;7.90;99.90;;;;;;5111782;28;20432;-80
2022/02/19 00:05:24;;;;;;;6.67;2.10;;;7.80;99.90;;;;;;5093388;28;20890;-81
2022/02/19 00:07:51;;;;;;;7.13;2.33;;;7.80;99.90;;;;;;5091110;28;20396;-82
2022/02/19 00:10:17;;;;;;;8.10;2.15;;;7.80;99.90;;;;;;5094293;28;20418;-80
2022/02/19 00:12:42;;;;;;;8.15;2.60;;;7.90;99.90;;;;;;5112991;28;20383;-79
2022/02/19 00:15:08;;;;;;;7.70;2.17;;;7.80;99.90;;;;;;5111576;28;20375;-81
2022/02/19 00:17:34;;;;;;;10.38;2.60;;;7.80;99.90;;;;;;5110378;28;20437;-80
2022/02/19 00:20:04;;;;;;;6.20;2.20;;;7.80;99.90;;;;;;5093271;28;20451;-80
2022/02/19 00:22:29;;;;;;;9.82;2.38;;;7.90;99.90;;;;;;5111786;28;20395;-81
2022/02/19 00:24:55;;;;;;;7.33;2.30;;;7.90;99.90;;;;;;5111877;28;20929;-80
2022/02/19 00:27:20;;;;;;;8.52;2.15;;;7.90;99.90;;;;;;5113687;28;20459;-81
2022/02/19 00:29:46;;;;;;;5.47;2.17;;;7.90;99.90;;;;;;5114487;28;20370;-80
2022/02/19 00:32:12;;;;;;;7.10;2.20;;;8.00;99.90;;;;;;5114052;28;20432;-80
2022/02/19 00:34:38;;;;;;;7.63;2.10;;;8.00;99.90;;;;;;5114913;28;20394;-79
2022/02/19 00:37:04;;;;;;;9.93;2.30;;;8.00;99.90;;;;;;5114032;28;20457;-80
2022/02/19 00:39:30;;;;;;;5.87;2.47;;;7.90;99.90;;;;;;5114671;28;20791;-81
2022/02/19 00:41:58;;;;;;;8.48;2.50;;;7.80;99.90;;;;;;5114150;28;20717;-81
2022/02/19 00:44:24;;;;;;;7.55;2.67;;;7.70;99.90;;;;;;5114007;28;20450;-81
2022/02/19 00:46:50;;;;;;;6.85;2.72;;;7.60;99.90;;;;;;5113679;28;20501;-80
2022/02/19 00:49:16;;;;;;;9.30;2.63;;;7.60;99.90;;;;;;5114259;28;20390;-81
2022/02/19 00:51:41;;;;;;;10.07;2.87;;;7.60;99.90;;;;;;5114337;28;20815;-80
2022/02/19 00:54:07;;;;;;;7.63;2.63;;;7.60;99.90;;;;;;5116282;28;20455;-82
2022/02/19 00:56:33;;;;;;;7.57;2.85;;;7.70;99.90;;;;;;5113173;28;20906;-83
2022/02/19 00:58:58;;;;;;;8.50;2.88;;;7.50;99.90;;;;;;5095774;28;20439;-81
2022/02/19 01:01:24;;;;;;;10.50;3.13;;;7.50;99.90;;;;;;5095293;28;20965;-81
2022/02/19 01:03:54;;;;;;;7.23;2.63;;;7.50;99.90;;;;;;5115322;28;20379;-80
2022/02/19 01:06:20;;;;;;;8.57;2.60;;;7.50;99.90;;;;;;5113715;28;20994;-82
2022/02/19 01:08:47;;;;;;;11.13;2.70;;;7.40;99.90;;;;;;5114568;28;20378;-82
2022/02/19 01:11:13;;;;;;;11.52;3.05;;;7.50;99.90;;;;;;5096797;28;20729;-83
2022/02/19 01:13:39;;;;;;;8.85;2.80;;;7.50;99.90;;;;;;5095195;28;20814;-82
2022/02/19 01:16:05;;;;;;;8.85;2.80;;;7.50;99.90;;;;;;5113257;28;20374;-81
2022/02/19 01:18:31;;;;;;;9.50;2.92;;;7.40;99.90;;;;;;5113414;28;20425;-80
2022/02/19 01:20:56;;;;;;;10.63;3.33;;;7.40;99.90;;;;;;5114339;28;20378;-80
2022/02/19 01:23:22;;;;;;;10.90;3.20;;;7.30;99.90;;;;;;5113784;28;20393;-81
2022/02/19 01:25:47;;;;;;;11.02;3.25;;;7.20;99.90;;;;;;5114360;28;20371;-81
2022/02/19 01:28:13;;;;;;;9.00;3.17;;;7.30;99.90;;;;;;5114618;28;20379;-81
2022/02/19 01:30:39;;;;;;;9.73;3.27;;;7.30;99.90;;;;;;5096761;28;20904;-81
2022/02/19 01:33:04;;;;;;;11.50;3.13;;;7.30;99.90;;;;;;5114664;28;20779;-80
2022/02/19 01:35:30;;;;;;;7.37;2.90;;;7.30;99.90;;;;;;5114173;28;20507;-81
2022/02/19 01:37:55;;;;;;;11.33;3.20;;;7.30;99.90;;;;;;5114407;28;20947;-82
2022/02/19 01:40:21;;;;;;;13.52;3.53;;;7.30;99.90;;;;;;5114442;28;20409;-81
2022/02/19 01:42:47;;;;;;;8.98;3.22;;;7.30;99.90;;;;;;5113857;28;20879;-81
2022/02/19 01:45:14;;;;;;;10.97;3.70;;;7.40;99.90;;;;;;5096289;28;21195;-82
2022/02/19 01:47:40;;;;;;;11.07;3.33;;;7.50;99.90;;;;;;5114120;28;20363;-80
2022/02/19 01:50:07;;;;;;;10.02;2.80;;;7.50;99.90;;;;;;5113180;28;20383;-81
2022/02/19 01:52:33;;;;;;;11.85;3.40;;;7.50;99.90;;;;;;5115948;28;20363;-81
2022/02/19 01:54:59;;;;;;;9.27;2.90;;;7.50;99.90;;;;;;5096860;28;20390;-82
2022/02/19 01:57:24;;;;;;;9.90;3.15;;;7.40;99.90;;;;;;5096542;28;20395;-80
2022/02/19 01:59:51;;;;;;;9.93;3.42;;;7.50;99.90;;;;;;5098714;28;20478;-80
2022/02/19 02:02:17;;;;;;;11.32;3.38;;;7.60;99.90;;;;;;5095424;28;20390;-81
2022/02/19 02:04:42;;;;;;;11.45;3.67;;;7.40;99.90;;;;;;5112652;28;20402;-80
2022/02/19 02:07:09;;;;;;;7.60;3.35;;;7.30;99.90;;;;;;5112415;28;20419;-81
2022/02/19 02:09:36;;;;;;;9.73;3.30;;;7.20;99.90;;;;;;5094963;28;20382;-81
2022/02/19 02:12:03;;;;;;;8.25;2.97;;;7.20;99.90;;;;;;5112235;28;20375;-81
2022/02/19 02:14:29;;;;;;;10.87;3.33;;;7.10;99.90;;;;;;5093797;28;20456;-80
2022/02/19 02:16:54;;;;;;;11.10;3.33;;;7.10;99.90;;;;;;5112460;28;20748;-80
2022/02/19 02:19:20;;;;;;;12.67;3.80;;;7.10;99.90;;;;;;5113747;28;20387;-79
2022/02/19 02:21:46;;;;;;;11.03;3.43;;;7.10;99.90;;;;;;5114581;28;20423;-81
2022/02/19 02:24:11;;;;;;;12.55;3.88;;;7.00;99.90;;;;;;5113513;28;20725;-81
2022/02/19 02:26:39;;;;;;;12.20;3.90;;;7.00;99.90;;;;;;5095036;28;20375;-82
2022/02/19 02:29:04;;;;;;;13.00;3.78;;;7.10;99.90;;;;;;5112118;28;20375;-80
2022/02/19 02:31:30;;;;;;;10.02;3.42;;;7.10;99.90;;;;;;5112685;28;20381;-80
2022/02/19 02:33:55;;;;;;;8.13;3.47;;;7.00;99.90;;;;;;5113350;28;20395;-80
2022/02/19 02:36:21;;;;;;;10.90;3.20;;;7.10;99.90;;;;;;5113696;28;20381;-81
2022/02/19 02:38:47;;;;;;;8.68;3.45;;;7.20;99.90;;;;;;5112908;28;20390;-81
2022/02/19 02:41:14;;;;;;;12.98;3.65;;;7.20;99.90;;;;;;5112924;28;20380;-81
2022/02/19 02:43:39;;;;;;;9.20;3.03;;;7.20;99.90;;;;;;5113527;28;20417;-81
2022/02/19 02:46:05;;;;;;;11.20;3.13;;;7.20;99.90;;;;;;5094204;28;20383;-81
2022/02/19 02:48:31;;;;;;;9.90;3.20;;;7.20;99.90;;;;;;5112241;28;20374;-81
2022/02/19 02:50:57;;;;;;;10.70;3.13;;;7.10;99.90;;;;;;5111849;28;21044;-82
2022/02/19 02:53:26;;;;;;;10.50;3.33;;;7.20;99.90;;;;;;5095676;28;20394;-82
2022/02/19 02:55:53;;;;;;;10.25;2.80;;;7.20;99.90;;;;;;5094720;28;20866;-81
2022/02/19 02:58:18;;;;;;;9.57;3.10;;;7.30;99.90;;;;;;5112084;28;20402;-81
2022/02/19 03:00:44;;;;;;;7.78;2.70;;;7.20;99.90;;;;;;5093708;28;20428;-81
2022/02/19 03:03:10;;;;;;;7.60;3.05;;;7.20;99.90;;;;;;5111292;28;20375;-83
2022/02/19 03:05:36;;;;;;;13.30;3.58;;;7.20;99.90;;;;;;5111592;28;20516;-81
2022/02/19 03:08:02;;;;;;;8.67;3.10;;;7.20;99.90;;;;;;5111212;28;20375;-79
2022/02/19 03:10:28;;;;;;;9.98;3.33;;;7.20;99.90;;;;;;5111507;28;20400;-81
2022/02/19 03:12:54;;;;;;;7.80;2.72;;;7.20;99.90;;;;;;5111283;28;20910;-81
2022/02/19 03:15:21;;;;;;;8.80;3.15;;;7.20;99.90;;;;;;5092343;28;20371;-81
2022/02/19 03:17:47;;;;;;;7.83;2.63;;;7.20;99.90;;;;;;5110506;28;20398;-82
2022/02/19 03:20:16;;;;;;;8.38;3.00;;;7.30;99.90;;;;;;5113122;28;20408;-81
2022/02/19 03:22:44;;;;;;;9.05;3.00;;;7.30;99.90;;;;;;5092853;28;20427;-83
2022/02/19 03:25:14;;;;;;;10.55;3.38;;;7.30;99.90;;;;;;5094956;28;20378;-80
2022/02/19 03:27:40;;;;;;;9.90;2.72;;;7.20;99.90;;;;;;5095477;28;20367;-80
2022/02/19 03:30:07;;;;;;;8.68;2.83;;;7.10;99.90;;;;;;5113747;28;20379;-82
2022/02/19 03:32:32;;;;;;;7.88;2.83;;;7.20;99.90;;;;;;5094772;28;20459;-81
2022/02/19 03:34:58;;;;;;;9.23;3.13;;;7.20;99.90;;;;;;5114022;28;20749;-81
2022/02/19 03:37:24;;;;;;;7.63;2.72;;;7.20;99.90;;;;;;5095490;28;20406;-81
2022/02/19 03:39:50;;;;;;;12.80;2.88;;;7.20;99.90;;;;;;5097626;28;20383;-82
2022/02/19 03:42:15;;;;;;;6.17;2.70;;;7.20;99.90;;;;;;5113684;28;20374;-82
2022/02/19 03:44:41;;;;;;;9.27;2.77;;;7.20;99.90;;;;;;5093844;28;21070;-81
2022/02/19 03:47:07;;;;;;;9.00;2.63;;;7.20;99.90;;;;;;5094351;28;20371;-80
2022/02/19 03:49:33;;;;;;;7.25;2.22;;;7.40;99.90;;;;;;5095433;28;20371;-81
2022/02/19 03:51:58;;;;;;;9.63;2.72;;;7.20;99.90;;;;;;5112698;28;20375;-81
2022/02/19 03:54:24;;;;;;;7.83;2.60;;;7.20;99.90;;;;;;5111322;28;20371;-81
2022/02/19 03:56:49;;;;;;;8.18;2.58;;;7.20;99.90;;;;;;5092513;28;20379;-81
2022/02/19 03:59:16;;;;;;;7.97;2.63;;;7.20;99.90;;;;;;5112147;28;20398;-80
2022/02/19 04:01:42;;;;;;;8.90;2.67;;;7.30;99.90;;;;;;5096002;28;20378;-81
2022/02/19 04:04:08;;;;;;;6.93;2.55;;;7.20;99.90;;;;;;5097425;28;20379;-81
2022/02/19 04:06:34;;;;;;;6.10;2.30;;;7.20;99.90;;;;;;5115527;28;20375;-83
2022/02/19 04:08:59;;;;;;;9.13;2.67;;;7.20;99.90;;;;;;5115709;28;20698;-82
2022/02/19 04:11:25;;;;;;;7.45;2.60;;;7.30;99.90;;;;;;5116430;28;20455;-81
2022/02/19 04:13:50;;;;;;;9.43;3.13;;;7.20;99.90;;;;;;5097018;28;20370;-82
2022/02/19 04:16:16;;;;;;;6.70;2.33;;;7.20;99.90;;;;;;5097339;28;20375;-82
2022/02/19 04:18:43;;;;;;;7.32;2.50;;;7.20;99.90;;;;;;5115617;28;20447;-83
2022/02/19 04:21:09;;;;;;;9.20;2.60;;;7.20;99.90;;;;;;5115843;28;20397;-80
2022/02/19 04:23:36;;;;;;;6.70;2.20;;;7.00;99.90;;;;;;5115370;28;20371;-81
2022/02/19 04:26:01;;;;;;;9.13;2.67;;;7.00;99.90;;;;;;5097095;28;21007;-80
2022/02/19 04:28:27;;;;;;;6.40;2.40;;;7.10;99.90;;;;;;5114382;28;20389;-81
2022/02/19 04:30:54;;;;;;;7.63;2.42;;;7.10;99.90;;;;;;5114932;28;20504;-81
2022/02/19 04:33:20;;;;;;;7.65;2.33;;;7.10;99.90;;;;;;5096273;28;20382;-83
2022/02/19 04:35:46;;;;;;;8.07;2.05;;;7.00;99.90;;;;;;5096257;28;20858;-82
2022/02/19 04:38:15;;;;;;;8.17;2.27;;;6.90;99.90;;;;;;5114507;28;20434;-81
2022/02/19 04:40:42;;;;;;;7.90;2.63;;;6.90;99.90;;;;;;5114781;28;20472;-82
2022/02/19 04:43:09;;;;;;;9.07;2.50;;;6.90;99.90;;;;;;5097677;28;20888;-83
2022/02/19 04:45:35;;;;;;;8.00;2.80;;;6.80;99.90;;;;;;5118751;28;20390;-82
2022/02/19 04:48:01;;;;;;;6.60;2.40;;;6.80;99.90;;;;;;5116974;28;20371;-82
2022/02/19 04:50:27;;;;;;;8.57;2.30;;;6.70;99.90;;;;;;5116972;28;20903;-83
2022/02/19 04:52:54;;;;;;;7.32;2.25;;;6.60;99.90;;;;;;5097362;28;20451;-81
2022/02/19 04:55:20;;;;;;;8.60;3.08;;;6.70;99.90;;;;;;5116336;28;20848;-81
2022/02/19 04:57:45;;;;;;;8.50;2.70;;;6.70;99.90;;;;;;5116136;28;20397;-82
2022/02/19 05:00:13;;;;;;;6.57;2.27;;;6.60;99.90;;;;;;5116493;28;20395;-80
2022/02/19 05:02:39;;;;;;;10.10;2.38;;;6.50;99.90;;;;;;5097847;28;20422;-82
2022/02/19 05:05:05;;;;;;;9.68;2.40;;;6.50;99.90;;;;;;5097506;28;20375;-82
2022/02/19 05:07:30;;;;;;;7.28;2.50;;;6.50;99.90;;;;;;5097500;28;20374;-83
2022/02/19 05:09:56;;;;;;;8.98;2.35;;;6.50;99.90;;;;;;5115782;28;20398;-83
2022/02/19 05:12:22;;;;;;;4.90;2.27;;;6.50;99.90;;;;;;5114882;28;20375;-81
2022/02/19 05:14:47;;;;;;;9.20;2.57;;;6.50;99.90;;;;;;5115289;28;20768;-81
2022/02/19 05:17:13;;;;;;;6.03;2.60;;;6.40;99.90;;;;;;5097867;28;20394;-80
2022/02/19 05:19:38;;;;;;;6.93;2.30;;;6.40;99.90;;;;;;5118365;28;20363;-82
2022/02/19 05:22:04;;;;;;;6.73;2.60;;;6.30;99.90;;;;;;5098104;28;20391;-81
2022/02/19 05:24:29;;;;;;;7.35;2.40;;;6.40;99.90;;;;;;5096673;28;20410;-83
2022/02/19 05:26:55;;;;;;;6.30;2.20;;;6.40;99.90;;;;;;5115731;28;20370;-80
2022/02/19 05:29:21;;;;;;;6.90;2.20;;;6.30;99.90;;;;;;5116276;28;20371;-82
2022/02/19 05:31:47;;;;;;;9.73;2.60;;;6.50;99.90;;;;;;5115029;28;20377;-82
2022/02/19 05:34:12;;;;;;;6.37;2.10;;;6.40;99.90;;;;;;5115250;28;20452;-82
2022/02/19 05:36:38;;;;;;;11.18;2.80;;;6.40;99.90;;;;;;5114154;28;20444;-83
2022/02/19 05:39:04;;;;;;;9.73;2.50;;;6.30;99.90;;;;;;5114085;28;20485;-82
2022/02/19 05:41:30;;;;;;;8.05;2.47;;;6.30;99.90;;;;;;5114439;28;20879;-82
2022/02/19 05:43:56;;;;;;;7.28;2.28;;;6.20;99.90;;;;;;5114307;28;20466;-81
2022/02/19 05:46:21;;;;;;;6.93;2.30;;;6.20;99.90;;;;;;5114262;28;20367;-81
2022/02/19 05:48:47;;;;;;;5.70;2.45;;;6.20;99.90;;;;;;5113702;28;20466;-80
2022/02/19 05:51:13;;;;;;;6.20;2.60;;;6.10;99.90;;;;;;5078911;28;20402;-81
2022/02/19 05:53:38;;;;;;;7.23;1.90;;;6.00;99.90;;;;;;5095739;28;20413;-82
2022/02/19 05:56:04;;;;;;;6.00;2.33;;;6.00;99.90;;;;;;5094217;28;21019;-82
2022/02/19 05:58:30;;;;;;;5.55;2.20;;;5.90;99.90;;;;;;5112614;28;20448;-81
2022/02/19 06:00:58;;;;;;;5.43;2.10;;;5.90;99.90;;;;;;5113676;28;20386;-81
2022/02/19 06:03:23;;;;;;;6.22;2.25;;;5.80;99.90;;;;;;5096803;28;20411;-81
2022/02/19 06:05:49;;;;;;;8.40;2.33;;;5.90;99.90;;;;;;5113572;28;20366;-80
2022/02/19 06:08:15;;;;;;;5.73;2.20;;;5.80;99.90;;;;;;5096032;28;20431;-81
2022/02/19 06:10:40;;;;;;;5.83;2.40;;;5.70;99.90;;;;;;5113507;28;20397;-81
2022/02/19 06:13:06;;;;;;;6.68;2.58;;;5.70;99.90;;;;;;5113678;28;20381;-83
2022/02/19 06:15:32;;;;;;;5.95;2.25;;;5.70;99.90;;;;;;5095577;28;20909;-84
2022/02/19 06:17:58;;;;;;;9.52;2.47;;;5.80;99.90;;;;;;5113991;28;20402;-80
2022/02/19 06:20:23;;;;;;;7.18;2.78;;;5.70;99.90;;;;;;5113677;28;20375;-81
2022/02/19 06:22:49;;;;;;;7.97;2.73;;;5.70;99.90;;;;;;5113475;28;20403;-82
2022/02/19 06:25:14;;;;;;;8.47;3.10;;;5.80;99.90;;;;;;5095503;28;20387;-80
2022/02/19 06:27:45;;;;;;;9.38;2.75;;;5.70;99.90;;;;;;5095625;28;20394;-81
2022/02/19 06:30:13;;;;;;;6.17;2.10;;;5.60;99.90;;;;;;5095947;28;20389;-82
2022/02/19 06:32:39;;;;;;;6.50;2.47;;;5.60;99.90;;;;;;5114758;28;20385;-81
2022/02/19 06:35:05;;;;;;;8.15;2.40;;;5.60;99.90;;;;;;5096076;28;20378;-82
2022/02/19 06:37:40;;;;;;;5.90;2.15;;;5.60;99.90;;;;;;5113842;28;20749;-81
2022/02/19 06:40:07;;;;;;;7.97;2.88;;;5.60;99.90;;;;;;5114828;28;20457;-80
2022/02/19 06:42:33;;;;;;;4.87;2.00;;;5.60;99.90;;;;;;5114347;28;20385;-82
2022/02/19 06:44:58;;;;;;;5.90;2.00;;;5.50;99.90;;;;;;5115095;28;20371;-81
2022/02/19 06:47:24;;;;;;;4.18;1.65;;;5.50;99.90;;;;;;5114873;28;20474;-82
2022/02/19 06:49:49;;;;;;;5.32;2.05;;;5.50;99.90;;;;;;5096392;28;20431;-81
2022/02/19 06:52:16;;;;;;;5.97;2.20;;;5.50;99.90;;;;;;5113968;28;20374;-82
2022/02/19 06:54:42;;;;;;;5.32;1.90;;;5.50;99.90;;;;;;5113940;28;20894;-81
2022/02/19 06:57:13;;;;;;;3.90;1.83;;;5.50;99.90;;;;;;5112864;28;20391;-81
2022/02/19 06:59:40;;;;;;;5.65;2.20;;;5.40;99.90;;;;;;5099034;28;20418;-81
2022/02/19 07:02:06;;;;;;;5.28;2.08;;;5.40;99.90;;;;;;5114747;28;20371;-80
2022/02/19 07:04:31;;;;;;;4.72;1.90;;;5.40;99.90;;;;;;5115063;28;20374;-81
2022/02/19 07:06:57;;;;;;;5.28;1.95;;;5.40;99.90;;;;;;5094615;28;20888;-81
2022/02/19 07:09:22;;;;;;;5.25;2.03;;;5.40;99.90;;;;;;5096242;28;20406;-80
2022/02/19 07:11:48;;;;;;;3.70;1.73;;;5.30;99.90;;;;;;5097409;28;20739;-81
2022/02/19 07:14:14;;;;;;;3.77;1.83;;;5.20;99.90;;;;;;5095439;28;20850;-81
2022/02/19 07:16:39;;;;;;;6.30;2.27;;;5.20;99.90;;;;;;5095396;28;20469;-81
2022/02/19 07:19:05;;;;;;;6.20;2.20;;;5.20;99.90;;;;;;5113288;28;20391;-82
2022/02/19 07:21:30;;;;;;;5.77;2.37;;;5.20;99.90;;;;;;5095807;28;20480;-81
2022/02/19 07:23:56;;;;;;;5.00;2.27;;;5.20;99.90;;;;;;5113816;28;20384;-80
2022/02/19 07:26:23;;;;;;;6.97;2.30;;;5.10;99.90;;;;;;5111402;28;20444;-82
2022/02/19 07:28:50;;;;;;;6.97;2.30;;;5.20;99.90;;;;;;5095860;28;20433;-81
2022/02/19 07:31:17;;;;;;;5.75;2.28;;;5.20;99.90;;;;;;5112822;28;20787;-82
2022/02/19 07:33:43;;;;;;;3.90;2.08;;;5.20;99.90;;;;;;5109884;28;20887;-81
2022/02/19 07:36:08;;;;;;;3.77;2.20;;;5.20;99.90;;;;;;5096268;28;20383;-81
2022/02/19 07:38:34;;;;;;;5.35;2.30;;;5.20;99.90;;;;;;5097991;28;20504;-81
2022/02/19 07:41:00;;;;;;;5.30;2.15;;;5.20;99.90;;;;;;5099421;28;20387;-83
2022/02/19 07:43:25;;;;;;;5.00;1.88;;;5.30;99.90;;;;;;5098140;28;20390;-81
2022/02/19 07:45:51;;;;;;;5.83;2.30;;;5.40;99.90;;;;;;5097233;28;20418;-81
2022/02/19 07:48:16;;;;;;;6.47;2.47;;;5.40;99.90;;;;;;5116139;28;20378;-82
2022/02/19 07:58:55;;;;;;;5.40;2.25;;;5.60;99.90;;;;;;5117564;28;20397;-82
2022/02/19 08:01:20;;;;;;;5.00;2.17;;;5.60;99.90;;;;;;5116965;28;20371;-80
2022/02/19 08:03:46;;;;;;;5.20;2.38;;;5.60;99.90;;;;;;5097898;28;20843;-81
2022/02/19 08:06:12;;;;;;;4.80;2.20;;;5.70;99.90;;;;;;5115817;28;20378;-81
2022/02/19 08:08:38;;;;;;;4.68;2.20;;;5.60;99.90;;;;;;5119963;27;20866;-80
2022/02/19 08:11:04;;;;;;;5.93;2.27;;;5.70;99.90;;;;;;5137355;27;20380;-82
2022/02/19 08:13:30;;;;;;;4.60;1.95;;;5.60;99.90;;;;;;5124282;27;20953;-81
2022/02/19 08:15:57;;;;;;;5.22;2.20;;;5.70;99.90;;;;;;5116644;28;20429;-80
2022/02/19 08:18:22;;;;;;;5.13;1.83;;;5.80;99.90;;;;;;5098850;28;20465;-81
2022/02/19 08:20:50;;;;;;;8.32;2.42;;;5.90;99.90;;;;;;5097997;28;20465;-81
2022/02/19 08:23:17;;;;;;;5.28;2.10;;;5.80;99.90;;;;;;5098985;28;20748;-82
2022/02/19 08:25:44;;;;;;;5.13;1.90;;;5.80;99.90;;;;;;5110603;27;20376;-81
2022/02/19 08:28:10;;;;;;;7.68;2.28;;;5.70;99.90;;;;;;5118550;27;20389;-81
2022/02/19 08:30:41;;;;;;;4.85;1.90;;;5.70;99.90;;;;;;5137665;27;20927;-81
2022/02/19 08:33:08;;;;;;;4.83;1.80;;;5.80;99.90;;;;;;5137831;27;20365;-80
2022/02/19 08:35:35;;;;;;;4.97;1.92;;;5.90;99.90;;;;;;5138492;27;20999;-83
2022/02/19 08:38:00;;;;;;;5.35;2.72;;;5.70;99.90;;;;;;5118757;27;20436;-81
2022/02/19 08:40:27;;;;;;;4.63;2.10;;;5.60;99.90;;;;;;5141062;27;20389;-82
2022/02/19 08:42:53;;;;;;;5.10;1.92;;;5.50;99.90;;;;;;5117400;28;20381;-81
2022/02/19 08:45:19;;;;;;;5.35;2.28;;;5.60;99.90;;;;;;5116325;28;20376;-81
2022/02/19 08:47:46;;;;;;;5.95;2.22;;;5.50;99.90;;;;;;5117369;28;20374;-81
2022/02/19 08:50:12;;;;;;;4.63;2.00;;;5.60;99.90;;;;;;5116083;28;20376;-81
2022/02/19 08:52:39;;;;;;;5.70;2.25;;;5.60;99.90;;;;;;5116194;28;20385;-81
2022/02/19 08:55:06;;;;;;;5.50;2.30;;;5.60;99.90;;;;;;5133818;28;20369;-82
2022/02/19 08:57:31;;;;;;;4.50;1.95;;;5.70;99.90;;;;;;5093515;28;20393;-80
2022/02/19 08:59:58;;;;;;;5.03;2.15;;;5.60;99.90;;;;;;5095363;28;20384;-80
2022/02/19 09:02:23;;;;;;;4.28;2.20;;;5.50;99.90;;;;;;5093844;28;20386;-82
2022/02/19 09:04:50;;;;;;;4.73;1.97;;;5.50;99.90;;;;;;5094438;28;20372;-80
2022/02/19 09:07:17;;;;;;;4.43;2.03;;;5.70;99.90;;;;;;5075012;28;20385;-80
2022/02/19 09:09:43;;;;;;;5.97;2.10;;;5.70;99.90;;;;;;5094725;28;20467;-82
2022/02/19 09:12:10;;;;;;;5.43;2.38;;;5.70;99.90;;;;;;5094994;28;20436;-82
2022/02/19 09:14:37;;;;;;;5.55;2.20;;;5.70;99.90;;;;;;5075276;28;20412;-81
2022/02/19 09:17:02;;;;;;;5.78;2.78;;;5.70;99.90;;;;;;5075146;28;21046;-82
2022/02/19 09:19:28;;;;;;;6.72;2.30;;;5.70;99.90;;;;;;5107713;28;20493;-81
2022/02/19 09:21:54;;;;;;;5.30;2.20;;;5.90;99.90;;;;;;5093133;28;20459;-81
2022/02/19 09:24:20;;;;;;;6.00;2.05;;;5.90;99.90;;;;;;5076547;28;20396;-82
2022/02/19 09:26:46;;;;;;;6.63;2.50;;;5.90;99.90;;;;;;5112180;28;20436;-81
2022/02/19 09:29:11;;;;;;;5.88;2.67;;;5.90;99.90;;;;;;5099149;28;20383;-81
2022/02/19 09:31:38;;;;;;;7.73;2.80;;;5.80;99.90;;;;;;5104890;28;20432;-82
2022/02/19 09:34:04;;;;;;;6.80;2.47;;;5.60;99.90;;;;;;5077518;28;20396;-81
2022/02/19 09:36:30;;;;;;;8.68;3.20;;;5.60;99.90;;;;;;5076986;28;20385;-82
2022/02/19 09:38:56;;;;;;;7.60;2.70;;;5.60;99.90;;;;;;5097816;28;20404;-81
2022/02/19 09:41:23;;;;;;;8.93;3.10;;;5.40;99.90;;;;;;5006981;28;2484392;-81
2022/02/19 09:43:48;;;;;;;12.07;3.15;;;5.40;99.90;;;;;;5094501;28;20463;-82
2022/02/19 09:46:15;;;;;;;7.97;3.08;;;5.50;99.90;;;;;;5101693;28;20449;-81
2022/02/19 09:48:45;;;;;;;5.45;2.95;;;5.50;99.90;;;;;;5114751;28;20375;-82
2022/02/19 09:51:11;;;;;;;7.15;3.08;;;5.60;99.90;;;;;;5112987;28;20383;-82
2022/02/19 09:53:38;;;;;;;8.05;2.80;;;5.70;99.90;;;;;;5113471;28;20387;-81
2022/02/19 09:56:05;;;;;;;10.52;2.67;;;5.70;99.90;;;;;;5096906;28;20457;-80
2022/02/19 09:58:32;;;;;;;7.88;2.88;;;5.70;99.90;;;;;;5096529;28;20919;-80
2022/02/19 10:01:18;;;;;;;6.93;2.28;;;5.70;99.90;;;;;;5086935;28;20381;-81
2022/02/19 10:03:45;;;;;;;7.85;2.40;;;5.70;99.90;;;;;;5082558;28;20399;-81
2022/02/19 10:06:12;;;;;;;10.00;3.28;;;5.70;99.90;;;;;;5094102;28;20368;-82
2022/02/19 10:08:38;;;;;;;7.32;2.80;;;5.80;99.90;;;;;;5093384;28;21135;-82
2022/02/19 10:11:04;;;;;;;8.88;3.03;;;5.80;99.90;;;;;;5098820;28;20420;-82
2022/02/19 10:13:38;;;;;;;6.72;2.90;;;5.80;99.90;;;;;;5113946;28;20358;-81
2022/02/19 10:16:05;;;;;;;7.90;3.03;;;5.90;99.90;;;;;;5113446;28;20376;-81
2022/02/19 10:18:34;;;;;;;10.90;2.90;;;6.00;99.90;;;;;;5114061;28;20409;-82
2022/02/19 10:21:18;;;;;;;7.45;2.40;;;6.00;99.90;;;;;;5083803;28;20392;-81
2022/02/19 10:23:55;;;;;;;5.63;2.40;;;6.00;99.90;;;;;;5099088;28;20490;-81
2022/02/19 10:26:24;;;;;;;7.43;2.42;;;6.20;99.90;;;;;;5086384;28;20467;-81
2022/02/19 10:29:04;;;;;;;8.07;2.83;;;6.50;99.90;;;;;;5074747;28;20809;-81
2022/02/19 10:31:31;;;;;;;7.88;2.88;;;6.50;99.90;;;;;;5091669;28;20455;-81
2022/02/19 10:34:23;;;;;;;7.25;2.78;;;6.70;99.90;;;;;;5100844;28;20888;-81
2022/02/19 10:36:58;;;;;;;7.07;2.83;;;6.70;99.90;;;;;;5108077;28;20387;-81
2022/02/19 10:39:27;;;;;;;9.30;3.40;;;6.80;99.90;;;;;;5110642;28;20923;-84
2022/02/19 10:41:56;;;;;;;8.95;3.17;;;6.60;99.90;;;;;;5110015;28;20729;-81
2022/02/19 10:44:24;;;;;;;9.10;3.13;;;6.70;99.90;;;;;;5089808;28;20444;-80
2022/02/19 10:46:52;;;;;;;11.35;3.60;;;6.50;99.90;;;;;;5105599;28;20374;-82
2022/02/19 10:49:18;;;;;;;9.13;2.87;;;6.60;99.90;;;;;;5111153;28;20741;-80
2022/02/19 10:51:44;;;;;;;9.90;2.90;;;6.50;99.90;;;;;;5091345;28;20388;-81
2022/02/19 10:54:11;;;;;;;7.20;2.92;;;6.60;99.90;;;;;;5092598;28;20964;-80
2022/02/19 10:56:38;;;;;;;10.63;3.60;;;6.60;99.90;;;;;;5112531;28;20375;-80
2022/02/19 10:59:13;;;;;;;8.77;3.13;;;6.70;99.90;;;;;;5112734;28;20402;-81
2022/02/19 11:01:49;;;;;;;8.60;2.80;;;6.70;99.90;;;;;;5113493;28;20422;-83
2022/02/19 11:04:18;;;;;;;10.52;3.33;;;6.70;99.90;;;;;;5084091;28;20383;-81
2022/02/19 11:06:43;;;;;;;10.15;3.40;;;6.70;99.90;;;;;;5131816;27;20369;-81
2022/02/19 11:09:10;;;;;;;8.27;3.10;;;6.70;99.90;;;;;;5130439;27;21108;-83
2022/02/19 11:11:38;;;;;;;8.68;3.28;;;6.90;99.90;;;;;;5094541;28;20387;-81
2022/02/19 11:14:08;;;;;;;7.85;3.10;;;6.90;99.90;;;;;;5106485;28;20415;-83
2022/02/19 11:16:35;;;;;;;7.57;2.90;;;7.00;99.90;;;;;;5092550;28;20396;-80
2022/02/19 11:19:02;;;;;;;10.18;3.47;;;7.30;99.90;;;;;;5092758;28;20901;-81
2022/02/19 11:21:29;;;;;;;7.28;3.10;;;7.40;99.90;;;;;;5109164;28;20481;-82
2022/02/19 11:24:03;;;;;;;9.00;2.70;;;7.30;99.90;;;;;;5111880;28;20375;-80
2022/02/19 11:26:29;;;;;;;7.65;3.08;;;7.50;99.90;;;;;;5114959;28;20622;-82
2022/02/19 11:29:00;;;;;;;7.05;2.80;;;7.60;99.90;;;;;;5105357;28;20443;-83
2022/02/19 11:31:31;;;;;;;7.25;2.78;;;7.60;99.90;;;;;;5112798;28;20878;-83
2022/02/19 11:34:04;;;;;;;8.75;3.17;;;7.60;99.90;;;;;;5093671;28;20379;-83
2022/02/19 11:36:30;;;;;;;7.07;2.67;;;7.60;99.90;;;;;;5112028;28;20370;-82
2022/02/19 11:38:57;;;;;;;9.68;2.92;;;7.50;99.90;;;;;;5110629;28;20394;-83
2022/02/19 11:41:40;;;;;;;8.68;2.92;;;7.70;99.90;;;;;;5112191;28;20421;-84
2022/02/19 11:44:29;;;;;;;10.75;3.30;;;7.80;99.90;;;;;;5089454;28;20397;-83
2022/02/19 11:46:56;;;;;;;7.30;2.72;;;7.80;99.90;;;;;;5103636;28;20723;-83
2022/02/19 11:49:22;;;;;;;9.82;2.80;;;8.00;99.90;;;;;;5115711;28;20377;-83
2022/02/19 11:52:06;;;;;;;7.72;2.63;;;8.00;99.90;;;;;;5111160;28;20379;-85
2022/02/19 11:54:33;;;;;;;6.57;2.47;;;8.00;99.90;;;;;;5109173;28;22102;-82
2022/02/19 11:57:17;;;;;;;11.05;2.88;;;8.00;99.90;;;;;;5110442;28;20384;-83
2022/02/19 11:59:45;;;;;;;7.25;2.40;;;8.10;99.90;;;;;;5093516;28;20941;-82
2022/02/19 12:02:12;;;;;;;8.38;2.88;;;8.10;99.90;;;;;;5112759;28;20730;-83
2022/02/19 12:04:38;;;;;;;6.78;2.60;;;8.20;99.90;;;;;;5131684;28;20373;-82
2022/02/19 12:07:12;;;;;;;7.37;2.90;;;8.10;99.90;;;;;;5112593;28;20875;-83
2022/02/19 12:10:01;;;;;;;8.77;2.55;;;8.10;99.90;;;;;;5113073;28;20883;-83
2022/02/19 12:12:27;;;;;;;8.57;3.08;;;8.10;99.90;;;;;;5113377;28;20381;-82
2022/02/19 12:14:57;;;;;;;7.57;2.60;;;8.10;99.90;;;;;;5132023;28;20716;-81
2022/02/19 12:17:25;;;;;;;8.88;2.80;;;8.30;99.90;;;;;;5132099;28;20405;-84
2022/02/19 12:20:03;;;;;;;9.83;3.43;;;8.30;99.90;;;;;;5109135;28;20412;-82
2022/02/19 12:22:32;;;;;;;10.10;4.40;;;8.40;99.90;;;;;;5111142;28;20410;-85
2022/02/19 12:24:58;;;;;;;6.32;2.55;;;8.50;99.90;;;;;;5101650;28;20441;-85
2022/02/19 12:27:24;;;;;;;8.27;3.10;;;8.60;99.90;;;;;;5108536;28;20367;-85
2022/02/19 12:29:51;;;;;;;9.90;3.17;;;8.50;99.90;;;;;;5111229;28;20382;-82
2022/02/19 12:32:22;;;;;;;8.80;2.83;;;8.30;99.90;;;;;;5105464;28;20436;-83
2022/02/19 12:34:56;;;;;;;7.03;2.60;;;8.10;99.90;;;;;;5110463;28;20876;-83
2022/02/19 12:37:23;;;;;;;8.32;2.67;;;8.20;99.90;;;;;;5095650;28;20465;-83
2022/02/19 12:39:54;;;;;;;8.80;2.72;;;8.30;99.90;;;;;;5095833;28;20425;-83
2022/02/19 12:42:25;;;;;;;8.43;2.83;;;8.40;99.90;;;;;;5108848;28;20504;-84
2022/02/19 12:45:05;;;;;;;9.95;2.90;;;8.60;99.90;;;;;;5112869;28;20375;-83
2022/02/19 12:47:36;;;;;;;7.57;2.67;;;8.60;99.90;;;;;;5112140;28;20379;-85
2022/02/19 12:50:04;;;;;;;8.15;2.72;;;8.50;99.90;;;;;;5082633;28;20382;-83
2022/02/19 12:52:29;;;;;;;7.30;2.70;;;8.20;99.90;;;;;;5094236;28;20411;-83
2022/02/19 12:54:55;;;;;;;6.67;2.40;;;8.20;99.90;;;;;;5111640;28;20796;-84
2022/02/19 12:57:22;;;;;;;8.10;2.58;;;8.20;99.90;;;;;;5113178;28;20398;-83
2022/02/19 12:59:51;;;;;;;8.77;2.65;;;8.10;99.90;;;;;;5122111;28;20394;-82
2022/02/19 13:02:20;;;;;;;6.88;2.33;;;8.10;99.90;;;;;;5076182;28;20894;-82